sensor_id;sensor_type;location;lat;lon;timestamp;pressure;altitude;pressure_sealevel;temperature;humidity
37852;BME280;23691;52.486;4.650;2023-05-08T00:01:06;102095.09;;;15.72;75.08
37852;BME280;23691;52.486;4.650;2023-05-08T00:03:32;102098.81;;;15.71;75.04
37852;BME280;23691;52.486;4.650;2023-05-08T00:05:57;102106.34;;;15.67;75.23
37852;BME280;23691;52.486;4.650;2023-05-08T00:08:23;102104.34;;;15.61;75.42
37852;BME280;23691;52.486;4.650;2023-05-08T00:10:48;102103.16;;;15.63;75.58
37852;BME280;23691;52.486;4.650;2023-05-08T00:13:13;102099.78;;;15.61;75.45
37852;BME280;23691;52.486;4.650;2023-05-08T00:15:39;102106.38;;;15.59;75.62
37852;BME280;23691;52.486;4.650;2023-05-08T00:18:04;102124.56;;;15.57;75.59
37852;BME280;23691;52.486;4.650;2023-05-08T00:20:30;102115.63;;;15.56;75.54
37852;BME280;23691;52.486;4.650;2023-05-08T00:22:55;102121.72;;;15.58;75.44
37852;BME280;23691;52.486;4.650;2023-05-08T00:25:22;102109.22;;;15.57;75.58
37852;BME280;23691;52.486;4.650;2023-05-08T00:27:47;102107.00;;;15.53;75.36
37852;BME280;23691;52.486;4.650;2023-05-08T00:30:13;102113.25;;;15.45;75.30
37852;BME280;23691;52.486;4.650;2023-05-08T00:32:38;102125.53;;;15.39;75.66
37852;BME280;23691;52.486;4.650;2023-05-08T00:35:04;102129.25;;;15.38;75.90
37852;BME280;23691;52.486;4.650;2023-05-08T00:37:30;102124.69;;;15.39;75.49
37852;BME280;23691;52.486;4.650;2023-05-08T00:39:55;102122.00;;;15.39;75.67
37852;BME280;23691;52.486;4.650;2023-05-08T00:42:20;102126.22;;;15.41;75.33
37852;BME280;23691;52.486;4.650;2023-05-08T00:44:45;102128.72;;;15.35;75.76
37852;BME280;23691;52.486;4.650;2023-05-08T00:47:12;102122.66;;;15.33;75.98
37852;BME280;23691;52.486;4.650;2023-05-08T00:49:37;102126.03;;;15.35;75.48
37852;BME280;23691;52.486;4.650;2023-05-08T00:52:03;102114.41;;;15.34;75.53
37852;BME280;23691;52.486;4.650;2023-05-08T00:54:33;102125.19;;;15.34;75.71
37852;BME280;23691;52.486;4.650;2023-05-08T00:57:02;102130.75;;;15.33;75.66
37852;BME280;23691;52.486;4.650;2023-05-08T00:59:31;102117.75;;;15.28;75.83
37852;BME280;23691;52.486;4.650;2023-05-08T01:01:58;102126.34;;;15.23;76.18
37852;BME280;23691;52.486;4.650;2023-05-08T01:04:25;102125.81;;;15.20;76.25
37852;BME280;23691;52.486;4.650;2023-05-08T01:06:51;102123.97;;;15.20;76.34
37852;BME280;23691;52.486;4.650;2023-05-08T01:09:16;102117.25;;;15.24;76.25
37852;BME280;23691;52.486;4.650;2023-05-08T01:12:06;102121.63;;;15.25;76.31
37852;BME280;23691;52.486;4.650;2023-05-08T01:17:15;102126.66;;;15.20;76.09
37852;BME280;23691;52.486;4.650;2023-05-08T01:20:02;102122.09;;;15.13;76.34
37852;BME280;23691;52.486;4.650;2023-05-08T01:23:07;102122.44;;;15.10;76.14
37852;BME280;23691;52.486;4.650;2023-05-08T01:25:45;102114.63;;;14.98;76.76
37852;BME280;23691;52.486;4.650;2023-05-08T01:28:59;102119.19;;;14.98;76.77
37852;BME280;23691;52.486;4.650;2023-05-08T01:34:08;102117.97;;;14.92;76.75
37852;BME280;23691;52.486;4.650;2023-05-08T01:36:49;102122.34;;;14.93;76.74
37852;BME280;23691;52.486;4.650;2023-05-08T01:39:24;102123.19;;;14.94;76.81
37852;BME280;23691;52.486;4.650;2023-05-08T01:41:59;102117.16;;;14.92;76.37
37852;BME280;23691;52.486;4.650;2023-05-08T01:44:37;102130.06;;;14.88;76.57
37852;BME280;23691;52.486;4.650;2023-05-08T01:47:06;102131.25;;;14.86;76.76
37852;BME280;23691;52.486;4.650;2023-05-08T01:49:39;102122.81;;;14.80;76.93
37852;BME280;23691;52.486;4.650;2023-05-08T01:52:12;102125.66;;;14.79;76.82
37852;BME280;23691;52.486;4.650;2023-05-08T01:54:46;102125.34;;;14.82;77.00
37852;BME280;23691;52.486;4.650;2023-05-08T01:57:13;102118.78;;;14.85;76.82
37852;BME280;23691;52.486;4.650;2023-05-08T01:59:40;102125.03;;;14.85;76.95
37852;BME280;23691;52.486;4.650;2023-05-08T02:02:08;102124.69;;;14.88;76.85
37852;BME280;23691;52.486;4.650;2023-05-08T02:04:34;102130.91;;;14.89;76.79
37852;BME280;23691;52.486;4.650;2023-05-08T02:07:00;102129.09;;;14.89;77.10
37852;BME280;23691;52.486;4.650;2023-05-08T02:09:28;102132.63;;;14.90;76.92
37852;BME280;23691;52.486;4.650;2023-05-08T02:11:56;102137.31;;;14.88;77.35
37852;BME280;23691;52.486;4.650;2023-05-08T02:14:24;102131.44;;;14.84;77.23
37852;BME280;23691;52.486;4.650;2023-05-08T02:16:52;102129.88;;;14.81;77.78
37852;BME280;23691;52.486;4.650;2023-05-08T02:19:20;102130.56;;;14.84;77.67
37852;BME280;23691;52.486;4.650;2023-05-08T02:21:48;102128.53;;;14.77;78.05
37852;BME280;23691;52.486;4.650;2023-05-08T02:24:16;102129.03;;;14.81;78.19
37852;BME280;23691;52.486;4.650;2023-05-08T02:26:43;102134.78;;;14.86;78.15
37852;BME280;23691;52.486;4.650;2023-05-08T02:29:09;102131.09;;;14.87;78.14
37852;BME280;23691;52.486;4.650;2023-05-08T02:31:35;102132.09;;;14.86;78.05
37852;BME280;23691;52.486;4.650;2023-05-08T02:34:03;102127.03;;;14.83;78.21
37852;BME280;23691;52.486;4.650;2023-05-08T02:36:29;102122.47;;;14.84;78.19
37852;BME280;23691;52.486;4.650;2023-05-08T02:38:57;102116.47;;;14.90;77.92
37852;BME280;23691;52.486;4.650;2023-05-08T02:41:28;102114.59;;;14.90;77.99
37852;BME280;23691;52.486;4.650;2023-05-08T02:43:55;102113.91;;;14.88;77.94
37852;BME280;23691;52.486;4.650;2023-05-08T02:52:32;102119.63;;;14.85;77.88
37852;BME280;23691;52.486;4.650;2023-05-08T02:55:22;102115.41;;;14.82;77.91
37852;BME280;23691;52.486;4.650;2023-05-08T02:58:21;102114.56;;;14.82;77.90
37852;BME280;23691;52.486;4.650;2023-05-08T03:00:57;102111.19;;;14.80;77.87
37852;BME280;23691;52.486;4.650;2023-05-08T03:03:37;102114.88;;;14.79;77.79
37852;BME280;23691;52.486;4.650;2023-05-08T03:06:20;102105.13;;;14.78;77.95
37852;BME280;23691;52.486;4.650;2023-05-08T03:08:47;102104.44;;;14.76;77.82
37852;BME280;23691;52.486;4.650;2023-05-08T03:11:17;102096.69;;;14.73;78.07
37852;BME280;23691;52.486;4.650;2023-05-08T03:13:45;102104.06;;;14.71;78.06
37852;BME280;23691;52.486;4.650;2023-05-08T03:16:18;102100.69;;;14.69;78.26
37852;BME280;23691;52.486;4.650;2023-05-08T03:18:56;102106.06;;;14.69;78.23
37852;BME280;23691;52.486;4.650;2023-05-08T03:21:27;102100.19;;;14.65;77.91
37852;BME280;23691;52.486;4.650;2023-05-08T03:23:53;102102.19;;;14.63;77.88
37852;BME280;23691;52.486;4.650;2023-05-08T03:26:20;102097.97;;;14.60;78.09
37852;BME280;23691;52.486;4.650;2023-05-08T03:28:50;102097.13;;;14.60;77.87
37852;BME280;23691;52.486;4.650;2023-05-08T03:31:19;102098.09;;;14.59;78.09
37852;BME280;23691;52.486;4.650;2023-05-08T03:33:47;102103.50;;;14.59;77.90
37852;BME280;23691;52.486;4.650;2023-05-08T03:36:16;102106.38;;;14.57;78.34
37852;BME280;23691;52.486;4.650;2023-05-08T03:38:42;102111.44;;;14.60;78.18
37852;BME280;23691;52.486;4.650;2023-05-08T03:41:07;102112.81;;;14.65;77.99
37852;BME280;23691;52.486;4.650;2023-05-08T03:43:35;102114.16;;;14.69;78.14
37852;BME280;23691;52.486;4.650;2023-05-08T03:46:01;102114.00;;;14.70;77.94
37852;BME280;23691;52.486;4.650;2023-05-08T03:48:27;102104.06;;;14.71;78.04
37852;BME280;23691;52.486;4.650;2023-05-08T03:50:55;102105.78;;;14.72;78.27
37852;BME280;23691;52.486;4.650;2023-05-08T03:53:21;102094.81;;;14.73;78.35
37852;BME280;23691;52.486;4.650;2023-05-08T03:55:46;102102.91;;;14.73;78.20
37852;BME280;23691;52.486;4.650;2023-05-08T03:58:30;102101.03;;;14.74;78.34
37852;BME280;23691;52.486;4.650;2023-05-08T04:01:02;102099.22;;;14.74;78.27
37852;BME280;23691;52.486;4.650;2023-05-08T04:06:12;102101.72;;;14.76;78.65
37852;BME280;23691;52.486;4.650;2023-05-08T04:08:52;102100.91;;;14.75;78.36
37852;BME280;23691;52.486;4.650;2023-05-08T04:11:26;102096.53;;;14.74;78.53
37852;BME280;23691;52.486;4.650;2023-05-08T04:14:02;102103.25;;;14.78;78.61
37852;BME280;23691;52.486;4.650;2023-05-08T04:16:30;102101.41;;;14.79;78.66
37852;BME280;23691;52.486;4.650;2023-05-08T04:19:08;102103.81;;;14.82;78.63
37852;BME280;23691;52.486;4.650;2023-05-08T04:21:35;102109.00;;;14.84;78.49
37852;BME280;23691;52.486;4.650;2023-05-08T04:24:06;102109.00;;;14.84;78.44
37852;BME280;23691;52.486;4.650;2023-05-08T04:26:35;102115.91;;;14.86;78.67
37852;BME280;23691;52.486;4.650;2023-05-08T04:29:01;102115.78;;;14.88;78.74
37852;BME280;23691;52.486;4.650;2023-05-08T04:31:26;102126.41;;;14.89;78.46
37852;BME280;23691;52.486;4.650;2023-05-08T04:33:53;102121.66;;;14.91;78.49
37852;BME280;23691;52.486;4.650;2023-05-08T04:36:19;102117.66;;;14.95;78.48
37852;BME280;23691;52.486;4.650;2023-05-08T04:38:44;102123.41;;;15.00;78.20
37852;BME280;23691;52.486;4.650;2023-05-08T04:41:10;102131.00;;;15.05;78.33
37852;BME280;23691;52.486;4.650;2023-05-08T04:43:35;102124.44;;;15.08;78.11
37852;BME280;23691;52.486;4.650;2023-05-08T04:46:03;102130.34;;;15.11;78.00
37852;BME280;23691;52.486;4.650;2023-05-08T04:48:29;102123.47;;;15.17;78.20
37852;BME280;23691;52.486;4.650;2023-05-08T04:50:57;102134.75;;;15.20;78.15
37852;BME280;23691;52.486;4.650;2023-05-08T04:53:22;102131.06;;;15.21;78.21
37852;BME280;23691;52.486;4.650;2023-05-08T04:55:48;102132.25;;;15.27;78.33
37852;BME280;23691;52.486;4.650;2023-05-08T04:58:13;102133.78;;;15.30;78.27
37852;BME280;23691;52.486;4.650;2023-05-08T05:00:38;102135.16;;;15.34;77.84
37852;BME280;23691;52.486;4.650;2023-05-08T05:03:06;102135.50;;;15.39;77.98
37852;BME280;23691;52.486;4.650;2023-05-08T05:05:33;102132.31;;;15.43;78.07
37852;BME280;23691;52.486;4.650;2023-05-08T05:07:59;102141.22;;;15.44;77.91
37852;BME280;23691;52.486;4.650;2023-05-08T05:10:24;102139.03;;;15.48;77.82
37852;BME280;23691;52.486;4.650;2023-05-08T05:12:52;102141.25;;;15.52;77.41
37852;BME280;23691;52.486;4.650;2023-05-08T05:15:20;102137.38;;;15.55;77.62
37852;BME280;23691;52.486;4.650;2023-05-08T05:17:46;102137.91;;;15.58;77.73
37852;BME280;23691;52.486;4.650;2023-05-08T05:20:12;102140.25;;;15.61;77.83
37852;BME280;23691;52.486;4.650;2023-05-08T05:22:37;102140.44;;;15.68;77.63
37852;BME280;23691;52.486;4.650;2023-05-08T05:25:03;102150.78;;;15.73;77.82
37852;BME280;23691;52.486;4.650;2023-05-08T05:27:34;102153.28;;;15.74;77.68
37852;BME280;23691;52.486;4.650;2023-05-08T05:30:00;102153.28;;;15.74;77.64
37852;BME280;23691;52.486;4.650;2023-05-08T05:32:26;102149.25;;;15.78;77.80
37852;BME280;23691;52.486;4.650;2023-05-08T05:34:51;102152.63;;;15.80;77.60
37852;BME280;23691;52.486;4.650;2023-05-08T05:37:18;102153.28;;;15.82;77.71
37852;BME280;23691;52.486;4.650;2023-05-08T05:39:43;102154.63;;;15.86;77.47
37852;BME280;23691;52.486;4.650;2023-05-08T05:42:09;102156.00;;;15.91;77.26
37852;BME280;23691;52.486;4.650;2023-05-08T05:44:34;102154.81;;;15.93;77.37
37852;BME280;23691;52.486;4.650;2023-05-08T05:46:59;102159.22;;;16.02;77.17
37852;BME280;23691;52.486;4.650;2023-05-08T05:49:25;102165.28;;;16.13;76.53
37852;BME280;23691;52.486;4.650;2023-05-08T05:51:50;102169.50;;;16.15;76.67
37852;BME280;23691;52.486;4.650;2023-05-08T05:54:15;102167.16;;;16.12;76.68
37852;BME280;23691;52.486;4.650;2023-05-08T05:56:41;102170.69;;;16.13;76.92
37852;BME280;23691;52.486;4.650;2023-05-08T05:59:06;102171.72;;;16.20;76.71
37852;BME280;23691;52.486;4.650;2023-05-08T06:01:32;102174.22;;;16.29;76.70
37852;BME280;23691;52.486;4.650;2023-05-08T06:03:57;102171.00;;;16.42;76.35
37852;BME280;23691;52.486;4.650;2023-05-08T06:06:22;102174.53;;;16.51;76.08
37852;BME280;23691;52.486;4.650;2023-05-08T06:08:48;102182.63;;;16.51;76.48
37852;BME280;23691;52.486;4.650;2023-05-08T06:11:14;102184.00;;;16.47;76.82
37852;BME280;23691;52.486;4.650;2023-05-08T06:13:39;102191.09;;;16.40;76.99
37852;BME280;23691;52.486;4.650;2023-05-08T06:16:06;102187.38;;;16.33;77.42
37852;BME280;23691;52.486;4.650;2023-05-08T06:18:32;102182.97;;;16.31;77.68
37852;BME280;23691;52.486;4.650;2023-05-08T06:20:58;102186.19;;;16.35;77.36
37852;BME280;23691;52.486;4.650;2023-05-08T06:23:23;102178.94;;;16.36;77.53
37852;BME280;23691;52.486;4.650;2023-05-08T06:25:49;102172.69;;;16.35;77.83
37852;BME280;23691;52.486;4.650;2023-05-08T06:28:14;102178.59;;;16.47;77.67
37852;BME280;23691;52.486;4.650;2023-05-08T06:30:40;102180.94;;;16.50;77.47
37852;BME280;23691;52.486;4.650;2023-05-08T06:33:05;102180.25;;;16.56;77.60
37852;BME280;23691;52.486;4.650;2023-05-08T06:35:30;102174.19;;;16.62;77.31
37852;BME280;23691;52.486;4.650;2023-05-08T06:37:56;102168.59;;;16.72;77.15
37852;BME280;23691;52.486;4.650;2023-05-08T06:40:22;102174.50;;;16.84;76.60
37852;BME280;23691;52.486;4.650;2023-05-08T06:42:47;102168.34;;;16.98;76.66
37852;BME280;23691;52.486;4.650;2023-05-08T06:45:13;102167.47;;;17.14;76.34
37852;BME280;23691;52.486;4.650;2023-05-08T06:47:38;102173.28;;;17.34;75.97
37852;BME280;23691;52.486;4.650;2023-05-08T06:50:04;102168.63;;;17.51;75.75
37852;BME280;23691;52.486;4.650;2023-05-08T06:52:30;102166.44;;;17.46;75.70
37852;BME280;23691;52.486;4.650;2023-05-08T06:54:55;102177.25;;;17.46;75.65
37852;BME280;23691;52.486;4.650;2023-05-08T06:57:20;102167.41;;;17.53;75.67
37852;BME280;23691;52.486;4.650;2023-05-08T06:59:46;102176.22;;;17.55;75.46
37852;BME280;23691;52.486;4.650;2023-05-08T07:02:11;102176.22;;;17.55;75.17
37852;BME280;23691;52.486;4.650;2023-05-08T07:04:37;102171.25;;;17.59;74.64
37852;BME280;23691;52.486;4.650;2023-05-08T07:07:02;102180.88;;;17.62;74.27
37852;BME280;23691;52.486;4.650;2023-05-08T07:09:27;102173.22;;;17.73;74.51
37852;BME280;23691;52.486;4.650;2023-05-08T07:11:53;102179.47;;;17.82;74.19
37852;BME280;23691;52.486;4.650;2023-05-08T07:14:18;102179.47;;;17.82;74.03
37852;BME280;23691;52.486;4.650;2023-05-08T07:16:43;102177.69;;;17.89;73.55
37852;BME280;23691;52.486;4.650;2023-05-08T07:19:09;102166.28;;;18.02;73.33
37852;BME280;23691;52.486;4.650;2023-05-08T07:21:35;102166.59;;;18.22;73.04
37852;BME280;23691;52.486;4.650;2023-05-08T07:24:00;102167.66;;;18.36;72.69
37852;BME280;23691;52.486;4.650;2023-05-08T07:26:25;102163.28;;;18.50;72.31
37852;BME280;23691;52.486;4.650;2023-05-08T07:28:51;102166.78;;;18.58;71.75
37852;BME280;23691;52.486;4.650;2023-05-08T07:31:18;102172.00;;;18.60;71.62
37852;BME280;23691;52.486;4.650;2023-05-08T07:33:44;102166.78;;;18.58;71.82
37852;BME280;23691;52.486;4.650;2023-05-08T07:36:10;102163.59;;;18.70;71.45
37852;BME280;23691;52.486;4.650;2023-05-08T07:38:36;102154.75;;;18.76;71.15
37852;BME280;23691;52.486;4.650;2023-05-08T07:41:01;102155.59;;;18.76;70.63
37852;BME280;23691;52.486;4.650;2023-05-08T07:43:27;102161.75;;;18.85;70.47
37852;BME280;23691;52.486;4.650;2023-05-08T07:45:52;102156.25;;;18.93;70.26
37852;BME280;23691;52.486;4.650;2023-05-08T07:48:17;102159.22;;;18.98;69.73
37852;BME280;23691;52.486;4.650;2023-05-08T07:50:44;102154.91;;;19.04;69.78
37852;BME280;23691;52.486;4.650;2023-05-08T07:53:09;102159.28;;;19.05;69.66
37852;BME280;23691;52.486;4.650;2023-05-08T07:55:35;102168.28;;;19.05;69.29
37852;BME280;23691;52.486;4.650;2023-05-08T07:58:00;102163.06;;;19.04;69.34
37852;BME280;23691;52.486;4.650;2023-05-08T08:00:25;102162.00;;;19.05;69.71
37852;BME280;23691;52.486;4.650;2023-05-08T08:02:52;102166.97;;;19.16;69.54
37852;BME280;23691;52.486;4.650;2023-05-08T08:05:17;102166.41;;;19.21;69.58
37852;BME280;23691;52.486;4.650;2023-05-08T08:07:42;102171.66;;;19.22;69.40
37852;BME280;23691;52.486;4.650;2023-05-08T08:10:08;102165.34;;;19.22;69.56
37852;BME280;23691;52.486;4.650;2023-05-08T08:12:33;102170.31;;;19.33;69.50
37852;BME280;23691;52.486;4.650;2023-05-08T08:14:59;102170.00;;;19.43;69.13
37852;BME280;23691;52.486;4.650;2023-05-08T08:17:24;102176.53;;;19.48;69.09
37852;BME280;23691;52.486;4.650;2023-05-08T08:19:49;102173.91;;;19.55;68.92
37852;BME280;23691;52.486;4.650;2023-05-08T08:22:15;102174.81;;;19.62;68.98
37852;BME280;23691;52.486;4.650;2023-05-08T08:24:40;102175.56;;;19.71;69.04
37852;BME280;23691;52.486;4.650;2023-05-08T08:27:06;102172.75;;;19.64;69.09
37852;BME280;23691;52.486;4.650;2023-05-08T08:29:31;102175.00;;;19.61;69.13
37852;BME280;23691;52.486;4.650;2023-05-08T08:31:56;102167.91;;;19.60;69.11
37852;BME280;23691;52.486;4.650;2023-05-08T08:34:22;102168.34;;;19.63;69.18
37852;BME280;23691;52.486;4.650;2023-05-08T08:36:47;102167.63;;;19.69;69.18
37852;BME280;23691;52.486;4.650;2023-05-08T08:39:13;102175.19;;;19.74;69.01
37852;BME280;23691;52.486;4.650;2023-05-08T08:41:38;102169.56;;;19.76;68.91
37852;BME280;23691;52.486;4.650;2023-05-08T08:44:04;102165.50;;;19.86;68.88
37852;BME280;23691;52.486;4.650;2023-05-08T08:46:30;102162.63;;;19.94;68.73
37852;BME280;23691;52.486;4.650;2023-05-08T08:48:58;102158.94;;;20.02;68.67
37852;BME280;23691;52.486;4.650;2023-05-08T08:51:42;102166.91;;;20.04;68.29
37852;BME280;23691;52.486;4.650;2023-05-08T08:54:16;102165.34;;;20.16;68.35
37852;BME280;23691;52.486;4.650;2023-05-08T08:56:47;102158.44;;;20.13;68.06
37852;BME280;23691;52.486;4.650;2023-05-08T08:59:14;102173.44;;;20.09;67.77
37852;BME280;23691;52.486;4.650;2023-05-08T09:01:40;102175.31;;;20.09;67.91
37852;BME280;23691;52.486;4.650;2023-05-08T09:04:07;102169.88;;;20.37;67.12
37852;BME280;23691;52.486;4.650;2023-05-08T09:06:35;102172.13;;;20.55;66.84
37852;BME280;23691;52.486;4.650;2023-05-08T09:09:00;102173.03;;;20.62;65.86
37852;BME280;23691;52.486;4.650;2023-05-08T09:11:27;102169.69;;;20.60;66.26
37852;BME280;23691;52.486;4.650;2023-05-08T09:13:57;102170.31;;;20.62;66.01
37852;BME280;23691;52.486;4.650;2023-05-08T09:16:23;102167.22;;;20.72;65.69
37852;BME280;23691;52.486;4.650;2023-05-08T09:18:49;102165.03;;;20.89;65.21
37852;BME280;23691;52.486;4.650;2023-05-08T09:21:14;102167.97;;;20.87;64.92
37852;BME280;23691;52.486;4.650;2023-05-08T09:26:27;102174.66;;;20.91;64.19
37852;BME280;23691;52.486;4.650;2023-05-08T09:31:37;102167.06;;;21.15;63.87
37852;BME280;23691;52.486;4.650;2023-05-08T09:34:07;102171.69;;;21.28;63.04
37852;BME280;23691;52.486;4.650;2023-05-08T09:36:33;102165.84;;;21.31;62.98
37852;BME280;23691;52.486;4.650;2023-05-08T09:39:00;102172.44;;;21.50;62.55
37852;BME280;23691;52.486;4.650;2023-05-08T09:41:26;102171.19;;;21.52;61.92
37852;BME280;23691;52.486;4.650;2023-05-08T09:44:02;102172.63;;;21.41;61.93
37852;BME280;23691;52.486;4.650;2023-05-08T09:46:29;102170.03;;;21.33;61.66
37852;BME280;23691;52.486;4.650;2023-05-08T09:48:58;102180.28;;;21.25;61.65
37852;BME280;23691;52.486;4.650;2023-05-08T09:51:26;102179.38;;;21.11;61.57
37852;BME280;23691;52.486;4.650;2023-05-08T09:53:53;102182.56;;;21.21;61.75
37852;BME280;23691;52.486;4.650;2023-05-08T09:56:36;102187.94;;;21.49;61.14
37852;BME280;23691;52.486;4.650;2023-05-08T09:59:29;102194.88;;;21.65;60.58
37852;BME280;23691;52.486;4.650;2023-05-08T10:01:55;102190.28;;;21.72;60.64
37852;BME280;23691;52.486;4.650;2023-05-08T10:04:35;102184.13;;;21.43;60.84
37852;BME280;23691;52.486;4.650;2023-05-08T10:07:00;102191.16;;;21.25;60.69
37852;BME280;23691;52.486;4.650;2023-05-08T10:09:26;102180.56;;;20.95;60.19
37852;BME280;23691;52.486;4.650;2023-05-08T10:11:52;102178.22;;;20.92;60.72
37852;BME280;23691;52.486;4.650;2023-05-08T10:14:19;102182.91;;;21.05;60.68
37852;BME280;23691;52.486;4.650;2023-05-08T10:16:46;102176.41;;;21.06;60.07
37852;BME280;23691;52.486;4.650;2023-05-08T10:19:15;102177.25;;;21.48;59.56
37852;BME280;23691;52.486;4.650;2023-05-08T10:21:42;102180.91;;;21.81;59.31
37852;BME280;23691;52.486;4.650;2023-05-08T10:24:14;102171.22;;;21.72;59.25
37852;BME280;23691;52.486;4.650;2023-05-08T10:26:43;102172.06;;;21.73;59.77
37852;BME280;23691;52.486;4.650;2023-05-08T10:29:16;102179.84;;;21.82;59.43
37852;BME280;23691;52.486;4.650;2023-05-08T10:31:45;102173.13;;;21.85;59.78
37852;BME280;23691;52.486;4.650;2023-05-08T10:34:15;102182.56;;;21.89;59.89
37852;BME280;23691;52.486;4.650;2023-05-08T10:36:41;102181.72;;;21.95;59.53
37852;BME280;23691;52.486;4.650;2023-05-08T10:39:07;102180.91;;;22.01;58.87
37852;BME280;23691;52.486;4.650;2023-05-08T10:41:35;102178.41;;;21.93;59.09
37852;BME280;23691;52.486;4.650;2023-05-08T10:44:00;102181.34;;;22.18;58.66
37852;BME280;23691;52.486;4.650;2023-05-08T10:46:48;102185.97;;;22.44;58.66
37852;BME280;23691;52.486;4.650;2023-05-08T10:49:46;102178.84;;;22.43;57.74
37852;BME280;23691;52.486;4.650;2023-05-08T10:52:26;102183.66;;;22.61;57.56
37852;BME280;23691;52.486;4.650;2023-05-08T10:57:22;102176.28;;;22.75;57.34
37852;BME280;23691;52.486;4.650;2023-05-08T10:59:48;102182.59;;;22.56;57.19
37852;BME280;23691;52.486;4.650;2023-05-08T11:02:13;102184.50;;;22.48;57.84
37852;BME280;23691;52.486;4.650;2023-05-08T11:04:41;102185.13;;;22.37;57.42
37852;BME280;23691;52.486;4.650;2023-05-08T11:07:08;102180.94;;;22.21;57.77
37852;BME280;23691;52.486;4.650;2023-05-08T11:12:45;102175.03;;;22.04;57.71
37852;BME280;23691;52.486;4.650;2023-05-08T11:15:12;102168.75;;;22.17;57.38
37852;BME280;23691;52.486;4.650;2023-05-08T11:17:38;102168.75;;;22.17;56.94
37852;BME280;23691;52.486;4.650;2023-05-08T11:20:04;102173.59;;;22.08;57.15
37852;BME280;23691;52.486;4.650;2023-05-08T11:22:32;102169.22;;;22.41;56.95
37852;BME280;23691;52.486;4.650;2023-05-08T11:25:05;102167.22;;;22.81;55.93
37852;BME280;23691;52.486;4.650;2023-05-08T11:30:37;102163.78;;;23.19;54.75
37852;BME280;23691;52.486;4.650;2023-05-08T11:40:54;102152.66;;;22.36;55.81
37852;BME280;23691;52.486;4.650;2023-05-08T11:46:06;102164.59;;;22.48;54.95
37852;BME280;23691;52.486;4.650;2023-05-08T11:48:34;102158.69;;;22.44;55.32
37852;BME280;23691;52.486;4.650;2023-05-08T11:51:01;102152.41;;;22.57;54.94
37852;BME280;23691;52.486;4.650;2023-05-08T11:53:27;102149.19;;;22.80;54.77
37852;BME280;23691;52.486;4.650;2023-05-08T11:55:53;102147.63;;;23.11;54.76
37852;BME280;23691;52.486;4.650;2023-05-08T11:58:19;102146.75;;;23.24;54.02
37852;BME280;23691;52.486;4.650;2023-05-08T12:00:46;102145.59;;;23.06;53.79
37852;BME280;23691;52.486;4.650;2023-05-08T12:03:19;102151.09;;;22.80;54.12
37852;BME280;23691;52.486;4.650;2023-05-08T12:05:46;102145.66;;;22.73;54.97
37852;BME280;23691;52.486;4.650;2023-05-08T12:08:13;102148.44;;;22.46;54.61
37852;BME280;23691;52.486;4.650;2023-05-08T12:15:47;102143.19;;;22.18;55.11
37852;BME280;23691;52.486;4.650;2023-05-08T12:18:14;102148.44;;;22.46;54.95
37852;BME280;23691;52.486;4.650;2023-05-08T12:20:40;102145.25;;;22.56;54.92
37852;BME280;23691;52.486;4.650;2023-05-08T12:23:05;102144.81;;;22.59;54.60
37852;BME280;23691;52.486;4.650;2023-05-08T12:25:31;102143.75;;;22.73;54.16
37852;BME280;23691;52.486;4.650;2023-05-08T12:27:57;102137.44;;;22.80;54.40
37852;BME280;23691;52.486;4.650;2023-05-08T12:30:24;102135.34;;;22.82;53.97
37852;BME280;23691;52.486;4.650;2023-05-08T12:32:49;102137.00;;;22.89;54.07
37852;BME280;23691;52.486;4.650;2023-05-08T12:35:15;102137.03;;;22.76;53.90
37852;BME280;23691;52.486;4.650;2023-05-08T12:37:41;102123.38;;;22.76;53.87
37852;BME280;23691;52.486;4.650;2023-05-08T12:40:07;102132.56;;;22.95;53.76
37852;BME280;23691;52.486;4.650;2023-05-08T12:42:47;102125.44;;;22.94;53.26
37852;BME280;23691;52.486;4.650;2023-05-08T12:45:27;102116.84;;;22.84;53.43
37852;BME280;23691;52.486;4.650;2023-05-08T12:47:57;102122.53;;;22.82;53.44
37852;BME280;23691;52.486;4.650;2023-05-08T12:50:23;102124.00;;;22.91;53.67
37852;BME280;23691;52.486;4.650;2023-05-08T12:52:52;102126.03;;;23.09;52.96
37852;BME280;23691;52.486;4.650;2023-05-08T12:55:22;102113.56;;;23.27;53.24
37852;BME280;23691;52.486;4.650;2023-05-08T12:58:07;102117.00;;;23.47;52.49
37852;BME280;23691;52.486;4.650;2023-05-08T13:00:37;102120.31;;;23.56;52.74
37852;BME280;23691;52.486;4.650;2023-05-08T13:03:03;102113.84;;;23.82;52.29
37852;BME280;23691;52.486;4.650;2023-05-08T13:05:29;102109.41;;;23.88;51.99
37852;BME280;23691;52.486;4.650;2023-05-08T13:08:03;102107.00;;;23.73;52.56
37852;BME280;23691;52.486;4.650;2023-05-08T13:10:49;102112.59;;;24.28;51.88
37852;BME280;23691;52.486;4.650;2023-05-08T13:13:17;102104.69;;;24.20;51.50
37852;BME280;23691;52.486;4.650;2023-05-08T13:15:43;102110.59;;;23.92;51.94
37852;BME280;23691;52.486;4.650;2023-05-08T13:18:08;102106.19;;;23.66;51.76
37852;BME280;23691;52.486;4.650;2023-05-08T13:20:34;102113.28;;;23.35;52.26
37852;BME280;23691;52.486;4.650;2023-05-08T13:23:00;102106.16;;;23.34;52.43
37852;BME280;23691;52.486;4.650;2023-05-08T13:25:26;102114.09;;;23.42;52.12
37852;BME280;23691;52.486;4.650;2023-05-08T13:27:51;102111.47;;;23.22;52.56
37852;BME280;23691;52.486;4.650;2023-05-08T13:30:17;102116.09;;;23.22;52.64
37852;BME280;23691;52.486;4.650;2023-05-08T13:32:42;102122.31;;;22.84;53.19
37852;BME280;23691;52.486;4.650;2023-05-08T13:35:08;102119.25;;;22.60;53.64
37852;BME280;23691;52.486;4.650;2023-05-08T13:37:33;102118.63;;;22.51;54.16
37852;BME280;23691;52.486;4.650;2023-05-08T13:39:58;102111.75;;;22.09;54.69